Time;durP1;ratioP1;P1;durP2;ratioP2;P2;SDS_P1;SDS_P2;PMS_P1;PMS_P2;Temp;Humidity;BMP_temperature;BMP_pressure;BME280_temperature;BME280_humidity;BME280_pressure;Samples;Min_cycle;Max_cycle;Signal;HPM_P1;HPM_P2
2022/06/11 00:01:03;;;;;;;12.23;10.95;;;;;;;16.51;80.68;94240.22;5057048;28;20105;-73
2022/06/11 00:03:29;;;;;;;13.93;12.00;;;;;;;16.48;80.78;94230.06;5054666;28;20417;-73
2022/06/11 00:05:54;;;;;;;13.95;11.90;;;;;;;16.48;80.83;94235.31;5037327;28;20391;-73
2022/06/11 00:08:20;;;;;;;13.95;11.32;;;;;;;16.46;80.51;94232.06;5071264;28;20036;-73
2022/06/11 00:10:46;;;;;;;12.25;10.95;;;;;;;16.58;80.44;94250.00;5071131;28;20402;-73
2022/06/11 00:13:12;;;;;;;15.25;11.45;;;;;;;16.56;80.36;94246.75;5070441;28;20104;-74
2022/06/11 00:15:37;;;;;;;14.30;10.82;;;;;;;16.57;79.98;94249.16;5054305;28;20025;-73
2022/06/11 00:18:03;;;;;;;11.63;10.43;;;;;;;16.60;80.17;94251.44;5037582;28;20044;-73
2022/06/11 00:20:28;;;;;;;14.60;10.95;;;;;;;16.62;80.42;94246.03;5053908;28;20490;-73
2022/06/11 00:22:54;;;;;;;13.13;10.50;;;;;;;16.63;80.38;94247.66;5053869;28;20512;-73
2022/06/11 00:25:19;;;;;;;13.27;11.05;;;;;;;16.61;80.30;94245.22;5070713;28;20020;-73
2022/06/11 00:27:45;;;;;;;13.35;10.45;;;;;;;16.59;80.16;94241.13;5070509;28;20040;-73
2022/06/11 00:30:11;;;;;;;11.82;10.43;;;;;;;16.59;79.98;94230.66;5054020;28;20028;-73
2022/06/11 00:32:38;;;;;;;11.95;10.15;;;;;;;16.65;79.75;94240.41;5070545;28;20028;-73
2022/06/11 00:35:04;;;;;;;13.10;10.40;;;;;;;16.69;79.73;94249.56;5070120;28;20074;-73
2022/06/11 00:37:30;;;;;;;13.15;10.65;;;;;;;16.61;79.59;94239.16;5070030;28;20037;-73
2022/06/11 00:39:56;;;;;;;12.07;9.93;;;;;;;16.61;79.74;94239.97;5053193;28;20035;-74
2022/06/11 00:42:25;;;;;;;13.07;10.05;;;;;;;16.60;79.19;94248.81;5071364;28;20028;-73
2022/06/11 00:45:33;;;;;;;11.90;9.38;;;;;;;16.43;79.43;94237.66;5037614;28;20119;-73
2022/06/11 00:48:13;;;;;;;10.50;9.38;;;;;;;16.48;79.76;94239.75;5051778;28;20037;-73
2022/06/11 00:51:00;;;;;;;12.93;9.50;;;;;;;16.46;80.27;94237.28;5054845;28;20401;-73
2022/06/11 00:53:28;;;;;;;13.48;9.85;;;;;;;16.49;80.20;94239.59;5053436;28;20044;-73
2022/06/11 00:55:53;;;;;;;12.57;9.85;;;;;;;16.44;80.18;94228.81;5070817;28;20546;-73
2022/06/11 00:58:25;;;;;;;11.55;9.60;;;;;;;16.48;80.04;94237.94;5053380;28;20025;-73
2022/06/11 01:00:55;;;;;;;11.93;9.40;;;;;;;16.50;80.09;94235.16;5053812;28;20036;-74
2022/06/11 01:03:27;;;;;;;12.85;9.52;;;;;;;16.49;79.89;94236.13;5069997;28;20043;-73
2022/06/11 01:06:17;;;;;;;12.20;8.55;;;;;;;16.41;79.86;94230.94;5070720;28;20033;-73
2022/06/11 01:08:53;;;;;;;11.23;8.85;;;;;;;16.47;80.05;94232.88;5068751;28;20081;-73
2022/06/11 01:11:19;;;;;;;12.00;8.10;;;;;;;16.45;79.85;94238.28;5067478;28;20482;-73
2022/06/11 01:14:13;;;;;;;11.68;8.25;;;;;;;16.41;80.19;94237.03;5061135;28;20029;-73
2022/06/11 01:16:56;;;;;;;8.95;7.82;;;;;;;16.42;80.29;94230.78;5059921;28;20055;-73
2022/06/11 01:19:31;;;;;;;9.00;7.53;;;;;;;16.42;80.27;94233.41;5044101;28;20040;-73
2022/06/11 01:22:02;;;;;;;11.07;8.00;;;;;;;16.40;79.96;94232.75;5062087;28;20489;-73
2022/06/11 01:24:50;;;;;;;10.32;7.70;;;;;;;16.42;80.23;94238.66;5062086;28;20033;-73
2022/06/11 01:27:40;;;;;;;9.50;8.02;;;;;;;16.43;79.99;94228.97;5060988;28;20051;-73
2022/06/11 01:30:08;;;;;;;9.15;8.18;;;;;;;16.39;79.87;94233.75;5061218;28;20032;-73
2022/06/11 01:33:10;;;;;;;8.55;7.55;;;;;;;16.36;79.92;94231.50;5026067;28;20038;-73
2022/06/11 01:35:38;;;;;;;11.15;7.85;;;;;;;16.42;79.71;94235.22;5047056;28;20021;-73
2022/06/11 01:38:20;;;;;;;10.75;8.10;;;;;;;16.38;79.99;94236.56;5065156;28;20025;-73
2022/06/11 01:41:14;;;;;;;11.98;8.32;;;;;;;16.34;79.88;94232.66;5058733;28;20123;-73
2022/06/11 01:43:42;;;;;;;8.98;8.00;;;;;;;16.34;79.92;94238.72;5027606;28;20079;-73
2022/06/11 01:46:25;;;;;;;10.82;7.78;;;;;;;16.33;80.52;94238.91;5069143;28;20524;-73
2022/06/11 01:48:53;;;;;;;9.55;7.63;;;;;;;16.33;80.32;94238.91;5039350;28;20040;-73
2022/06/11 01:51:40;;;;;;;8.45;7.57;;;;;;;16.30;80.19;94238.25;5033994;28;20028;-73
2022/06/11 01:54:25;;;;;;;9.65;7.75;;;;;;;16.34;80.30;94243.16;5046856;28;20560;-73
2022/06/11 01:57:08;;;;;;;9.45;8.45;;;;;;;16.35;80.27;94245.56;5059146;28;20067;-73
2022/06/11 02:00:12;;;;;;;8.48;7.57;;;;;;;16.32;80.47;94240.69;5061722;28;20032;-73
2022/06/11 02:02:56;;;;;;;9.50;7.85;;;;;;;16.35;80.60;94250.00;5061237;28;20044;-72
2022/06/11 02:05:54;;;;;;;8.88;7.78;;;;;;;16.37;80.56;94248.03;5064368;28;20490;-73
2022/06/11 02:08:40;;;;;;;9.10;7.38;;;;;;;16.37;80.51;94248.03;5037037;28;20044;-73
2022/06/11 02:11:10;;;;;;;9.57;7.55;;;;;;;16.40;80.25;94238.00;5069345;28;20033;-73
2022/06/11 02:13:40;;;;;;;8.63;7.72;;;;;;;16.40;80.12;94239.81;5069196;28;20029;-73
2022/06/11 02:16:13;;;;;;;9.20;8.25;;;;;;;16.38;80.52;94241.78;5069048;28;20513;-74
2022/06/11 02:18:39;;;;;;;9.80;7.68;;;;;;;16.43;80.18;94245.50;5070249;28;20449;-74
2022/06/11 02:21:09;;;;;;;9.73;7.70;;;;;;;16.45;80.14;94246.16;5068417;28;20068;-73
2022/06/11 02:23:37;;;;;;;10.77;8.50;;;;;;;16.46;79.89;94242.53;5046208;28;20032;-73
2022/06/11 02:26:07;;;;;;;8.73;7.88;;;;;;;16.36;80.08;94238.56;5038575;28;20094;-73
2022/06/11 02:28:34;;;;;;;8.45;7.63;;;;;;;16.39;79.97;94241.63;5053311;28;20101;-73
2022/06/11 02:31:02;;;;;;;10.25;7.95;;;;;;;16.38;79.98;94244.41;5048098;28;20021;-73
2022/06/11 02:33:28;;;;;;;8.43;7.53;;;;;;;16.42;79.75;94246.50;5049642;28;20037;-73
2022/06/11 02:35:57;;;;;;;8.55;7.65;;;;;;;16.40;80.12;94253.72;5055540;28;20039;-74
2022/06/11 02:38:24;;;;;;;8.77;7.82;;;;;;;16.39;80.00;94246.88;5056350;28;20036;-74
2022/06/11 02:40:52;;;;;;;9.30;8.05;;;;;;;16.41;80.30;94244.91;5055919;28;20103;-73
2022/06/11 02:43:18;;;;;;;9.43;8.48;;;;;;;16.35;80.63;94240.34;5056097;28;20039;-73
2022/06/11 02:45:43;;;;;;;9.25;8.25;;;;;;;16.42;80.33;94251.75;5039390;28;20036;-73
2022/06/11 02:48:10;;;;;;;8.60;7.55;;;;;;;16.44;80.23;94251.59;5053948;28;20107;-73
2022/06/11 02:50:35;;;;;;;9.65;8.35;;;;;;;16.44;79.99;94243.72;5052597;28;20052;-72
2022/06/11 02:53:01;;;;;;;9.18;7.80;;;;;;;16.45;80.03;94247.97;5055679;28;20036;-73
2022/06/11 02:55:27;;;;;;;8.82;7.93;;;;;;;16.46;80.06;94246.97;5052695;28;20032;-74
2022/06/11 02:57:53;;;;;;;8.80;7.90;;;;;;;16.52;80.12;94249.72;5071483;28;20044;-74
2022/06/11 03:00:28;;;;;;;10.82;7.55;;;;;;;16.44;79.98;94252.41;5053919;28;20090;-74
2022/06/11 03:02:54;;;;;;;9.23;7.57;;;;;;;16.30;79.51;94243.50;5048313;28;20037;-73
2022/06/11 03:05:23;;;;;;;10.07;7.95;;;;;;;16.24;79.97;94249.44;5045150;28;20036;-73
2022/06/11 03:07:49;;;;;;;8.95;7.78;;;;;;;16.30;80.10;94258.41;5062162;28;20060;-72
2022/06/11 03:10:15;;;;;;;8.95;7.90;;;;;;;16.33;80.38;94259.88;5065921;28;20555;-72
2022/06/11 03:12:40;;;;;;;10.13;7.90;;;;;;;16.38;80.16;94265.38;5045969;28;20416;-73
2022/06/11 03:15:06;;;;;;;8.80;7.63;;;;;;;16.37;80.15;94259.34;5061303;28;20028;-73
2022/06/11 03:17:32;;;;;;;9.75;7.38;;;;;;;16.40;80.05;94263.41;5060481;28;20033;-73
2022/06/11 03:19:57;;;;;;;9.80;7.68;;;;;;;16.41;80.15;94265.88;5060093;28;20028;-73
2022/06/11 03:22:23;;;;;;;8.48;7.30;;;;;;;16.43;80.13;94269.09;5062484;28;20032;-72
2022/06/11 03:24:48;;;;;;;7.93;6.93;;;;;;;16.42;80.27;94264.88;5054460;28;20120;-73
2022/06/11 03:27:15;;;;;;;8.20;7.35;;;;;;;16.41;80.44;94271.09;5051671;28;20037;-72
2022/06/11 03:29:41;;;;;;;8.02;7.22;;;;;;;16.39;80.28;94265.22;5051429;28;20097;-72
2022/06/11 03:32:07;;;;;;;8.40;7.53;;;;;;;16.38;80.26;94265.38;5069476;28;20036;-72
2022/06/11 03:34:32;;;;;;;8.40;7.57;;;;;;;16.42;80.56;94272.72;5072106;28;20483;-73
2022/06/11 03:36:58;;;;;;;7.95;7.15;;;;;;;16.41;80.60;94268.50;5071559;28;20062;-72
2022/06/11 03:39:24;;;;;;;8.02;7.22;;;;;;;16.43;80.61;94269.09;5037072;28;20047;-72
2022/06/11 03:41:50;;;;;;;8.98;6.70;;;;;;;16.43;80.58;94268.28;5070678;28;20020;-72
2022/06/11 03:44:15;;;;;;;8.65;7.03;;;;;;;16.43;80.42;94269.09;5053818;28;20081;-73
2022/06/11 03:46:41;;;;;;;7.78;6.93;;;;;;;16.42;80.52;94269.31;5053677;28;20032;-72
2022/06/11 03:49:07;;;;;;;7.15;6.45;;;;;;;16.43;80.70;94269.09;5070182;28;20027;-72
2022/06/11 03:51:33;;;;;;;7.57;6.78;;;;;;;16.45;80.67;94268.94;5071701;28;20040;-72
2022/06/11 03:53:58;;;;;;;7.78;6.97;;;;;;;16.45;80.77;94261.88;5050828;28;20118;-72
2022/06/11 03:56:25;;;;;;;7.80;6.93;;;;;;;16.46;80.71;94262.69;5051357;28;20052;-72
2022/06/11 03:58:51;;;;;;;8.65;6.80;;;;;;;16.42;80.90;94262.25;5073080;28;20410;-72
2022/06/11 04:01:18;;;;;;;9.65;7.22;;;;;;;16.47;80.97;94267.78;5037882;28;20102;-73
2022/06/11 04:03:52;;;;;;;7.93;7.13;;;;;;;16.43;80.64;94261.25;5054705;28;20074;-73
2022/06/11 04:06:23;;;;;;;7.88;7.00;;;;;;;16.47;80.57;94270.41;5054890;28;20035;-73
2022/06/11 04:08:48;;;;;;;10.82;7.45;;;;;;;16.44;80.37;94268.13;5070933;28;20513;-73
2022/06/11 04:11:14;;;;;;;8.95;7.95;;;;;;;16.49;80.48;94273.66;5054631;28;20037;-73
2022/06/11 04:13:40;;;;;;;9.13;7.90;;;;;;;16.46;80.44;94270.56;5070928;28;20456;-73
2022/06/11 04:16:06;;;;;;;7.95;7.15;;;;;;;16.49;80.57;94278.06;5054082;28;20016;-73
2022/06/11 04:18:37;;;;;;;9.60;7.60;;;;;;;16.48;80.65;94272.03;5070234;28;20032;-73
2022/06/11 04:21:05;;;;;;;9.45;7.65;;;;;;;16.50;80.60;94280.53;5054636;28;20029;-72
2022/06/11 04:23:31;;;;;;;8.60;7.78;;;;;;;16.52;80.19;94278.56;5054211;28;20040;-73
2022/06/11 04:25:58;;;;;;;9.15;8.02;;;;;;;16.41;80.83;94276.34;5070928;28;20040;-73
2022/06/11 04:28:25;;;;;;;9.60;8.43;;;;;;;16.46;80.82;94281.84;5068591;28;20048;-73
2022/06/11 04:30:50;;;;;;;10.15;8.57;;;;;;;16.41;80.86;94280.75;5047181;28;21644;-72
2022/06/11 04:33:16;;;;;;;11.85;9.80;;;;;;;16.42;80.87;94282.41;5050059;28;20043;-72
2022/06/11 04:35:41;;;;;;;10.48;9.38;;;;;;;16.51;81.35;94287.41;5070211;28;20482;-73
2022/06/11 04:38:06;;;;;;;11.23;9.50;;;;;;;16.45;81.21;94274.19;5069032;28;20438;-72
2022/06/11 04:40:32;;;;;;;10.75;9.02;;;;;;;16.65;81.07;94298.09;5069268;28;20024;-73
2022/06/11 04:42:57;;;;;;;9.73;8.52;;;;;;;16.67;80.81;94291.69;5068450;28;20036;-72
2022/06/11 04:45:23;;;;;;;11.55;8.95;;;;;;;16.68;80.71;94288.06;5071717;28;20032;-73
2022/06/11 04:47:48;;;;;;;10.90;9.02;;;;;;;16.77;80.53;94293.28;5069062;28;20041;-72
2022/06/11 04:50:15;;;;;;;10.48;7.80;;;;;;;16.77;80.41;94302.00;5070453;28;20406;-72
2022/06/11 04:52:40;;;;;;;9.15;8.25;;;;;;;16.81;80.05;94300.63;5069553;28;20032;-73
2022/06/11 04:55:06;;;;;;;10.38;9.18;;;;;;;16.85;79.95;94299.25;5071264;28;20053;-72
2022/06/11 04:57:31;;;;;;;11.30;8.75;;;;;;;16.90;79.66;94306.63;5071183;28;20056;-72
2022/06/11 04:59:57;;;;;;;9.90;8.65;;;;;;;16.93;79.79;94303.63;5053601;28;20070;-72
2022/06/11 05:02:22;;;;;;;9.63;8.18;;;;;;;16.96;79.98;94308.53;5069240;28;20028;-74
2022/06/11 05:04:48;;;;;;;9.73;8.23;;;;;;;16.98;79.74;94315.22;5068602;28;20029;-74
2022/06/11 05:07:14;;;;;;;10.52;8.70;;;;;;;17.00;79.76;94306.38;5051489;28;20047;-73
2022/06/11 05:09:39;;;;;;;10.85;9.68;;;;;;;17.02;79.61;94315.69;5049051;28;20021;-72
2022/06/11 05:12:07;;;;;;;9.73;8.73;;;;;;;17.01;79.95;94313.25;5068710;28;20032;-73
2022/06/11 05:14:32;;;;;;;11.48;9.10;;;;;;;17.06;79.78;94321.41;5069846;28;20063;-72
2022/06/11 05:16:59;;;;;;;10.38;9.10;;;;;;;17.04;79.55;94323.38;5065552;28;20615;-73
2022/06/11 05:19:24;;;;;;;11.80;9.10;;;;;;;17.02;79.58;94317.47;5070157;28;20560;-72
2022/06/11 05:21:50;;;;;;;11.20;10.02;;;;;;;17.02;79.48;94323.56;5050193;28;20038;-72
2022/06/11 05:24:15;;;;;;;9.98;8.90;;;;;;;17.03;79.99;94316.50;5050241;28;20036;-73
2022/06/11 05:26:48;;;;;;;10.93;9.57;;;;;;;17.11;80.04;94329.56;5050831;28;20020;-74
2022/06/11 05:29:24;;;;;;;10.52;9.40;;;;;;;17.12;79.76;94331.97;5045010;28;20083;-74
2022/06/11 05:31:50;;;;;;;10.35;9.00;;;;;;;17.16;79.77;94335.06;5048615;28;20032;-74
2022/06/11 05:34:16;;;;;;;11.05;9.25;;;;;;;17.10;79.28;94331.34;5041719;28;20036;-74
2022/06/11 05:36:41;;;;;;;9.57;8.27;;;;;;;17.14;79.19;94344.94;5048453;28;20031;-73
2022/06/11 05:39:07;;;;;;;9.45;8.38;;;;;;;17.17;79.17;94345.38;5065915;28;20032;-72
2022/06/11 05:41:32;;;;;;;9.73;7.55;;;;;;;17.11;78.79;94337.44;5067541;28;20025;-73
2022/06/11 05:43:58;;;;;;;8.43;7.53;;;;;;;17.15;78.83;94346.56;5061440;28;20090;-73
2022/06/11 05:46:23;;;;;;;9.13;8.23;;;;;;;17.16;78.89;94353.44;5064282;28;20036;-73
2022/06/11 05:48:52;;;;;;;9.52;8.10;;;;;;;17.18;79.16;94354.06;5049096;28;20044;-72
2022/06/11 05:51:23;;;;;;;8.38;7.45;;;;;;;17.17;79.40;94344.59;5060124;28;20032;-73
2022/06/11 05:53:50;;;;;;;7.80;7.00;;;;;;;17.22;79.01;94355.38;5063182;28;20179;-72
2022/06/11 05:56:16;;;;;;;8.00;7.07;;;;;;;17.25;79.08;94355.00;5062838;28;20440;-72
2022/06/11 05:58:43;;;;;;;9.10;7.47;;;;;;;17.25;78.76;94362.06;5066089;28;20098;-72
2022/06/11 06:01:10;;;;;;;7.28;6.45;;;;;;;17.26;78.67;94358.44;5048970;28;20059;-72
2022/06/11 06:03:35;;;;;;;7.75;6.47;;;;;;;17.25;78.33;94356.81;5050195;28;20029;-71
2022/06/11 06:06:01;;;;;;;7.95;6.68;;;;;;;17.18;78.24;94365.38;5051680;28;20028;-73
2022/06/11 06:08:26;;;;;;;9.20;6.60;;;;;;;17.15;78.34;94365.75;5064551;28;20098;-73
2022/06/11 06:10:52;;;;;;;6.85;5.95;;;;;;;17.18;78.53;94369.81;5051873;28;20060;-72
2022/06/11 06:16:02;;;;;;;5.82;4.53;;;;;;;17.14;76.94;94372.00;5066999;28;20031;-72
2022/06/11 06:18:27;;;;;;;7.82;5.47;;;;;;;17.17;77.36;94370.81;5067975;28;20040;-72
2022/06/11 06:20:53;;;;;;;6.32;5.50;;;;;;;17.14;77.44;94365.94;5042371;28;20032;-72
2022/06/11 06:23:18;;;;;;;5.88;5.28;;;;;;;17.19;77.40;94374.91;5066635;28;20052;-72
2022/06/11 06:25:44;;;;;;;5.47;4.57;;;;;;;17.17;77.15;94371.63;5065114;28;20040;-72
2022/06/11 06:28:09;;;;;;;5.72;4.90;;;;;;;17.19;77.38;94376.72;5067157;28;20032;-72
2022/06/11 06:30:35;;;;;;;5.00;4.15;;;;;;;17.20;76.94;94375.72;5049543;28;20532;-73
2022/06/11 06:33:00;;;;;;;5.05;3.92;;;;;;;17.14;76.59;94384.31;5059132;28;20031;-72
2022/06/11 06:35:26;;;;;;;5.40;4.38;;;;;;;17.09;75.96;94386.63;5055829;28;20405;-72
2022/06/11 06:37:51;;;;;;;5.15;3.78;;;;;;;17.12;77.17;94389.72;5065183;28;20419;-71
2022/06/11 06:40:17;;;;;;;5.53;3.85;;;;;;;17.12;77.03;94383.66;5064552;28;20021;-71
2022/06/11 06:42:42;;;;;;;3.80;3.40;;;;;;;17.13;77.11;94385.28;5060014;28;20036;-72
2022/06/11 06:45:08;;;;;;;4.55;3.85;;;;;;;17.16;77.14;94395.41;5064912;28;20119;-72
2022/06/11 06:47:33;;;;;;;5.45;3.78;;;;;;;17.20;77.60;94396.72;5062288;28;20036;-72
2022/06/11 06:49:59;;;;;;;5.30;4.22;;;;;;;17.19;78.50;94392.47;5061872;28;20029;-72
2022/06/11 06:52:24;;;;;;;3.90;3.30;;;;;;;17.18;76.23;94398.69;5060895;28;20033;-72
2022/06/11 06:54:50;;;;;;;3.63;3.10;;;;;;;17.08;75.38;94392.88;5061761;28;20502;-72
2022/06/11 06:57:16;;;;;;;3.92;2.70;;;;;;;16.98;75.35;94388.69;5067657;28;20431;-72
2022/06/11 06:59:41;;;;;;;3.67;2.40;;;;;;;16.90;73.77;94396.63;5055316;28;20034;-72
2022/06/11 07:02:09;;;;;;;3.78;2.60;;;;;;;16.92;74.29;94388.59;5066209;28;20037;-73
2022/06/11 07:04:35;;;;;;;3.20;2.70;;;;;;;17.00;74.43;94395.59;5048132;28;20115;-72
2022/06/11 07:07:00;;;;;;;2.75;2.40;;;;;;;17.03;74.53;94387.34;5065019;28;20474;-72
2022/06/11 07:09:26;;;;;;;3.30;3.00;;;;;;;17.04;75.66;94394.22;5055528;28;20067;-72
2022/06/11 07:11:51;;;;;;;3.95;2.92;;;;;;;17.11;75.53;94397.78;5063799;28;20079;-72
2022/06/11 07:14:17;;;;;;;4.20;3.08;;;;;;;17.10;74.76;94401.38;5064008;28;20032;-72
2022/06/11 07:16:45;;;;;;;4.65;3.40;;;;;;;17.15;74.47;94396.41;5066739;28;20116;-72
2022/06/11 07:19:15;;;;;;;6.05;3.58;;;;;;;17.16;75.67;94398.88;5070960;28;20035;-72
2022/06/11 07:21:43;;;;;;;4.00;3.20;;;;;;;17.20;76.43;94389.66;5069737;28;20082;-72
2022/06/11 07:24:11;;;;;;;3.90;3.15;;;;;;;17.32;74.90;94397.91;5073439;28;20033;-72
2022/06/11 07:26:39;;;;;;;4.55;3.50;;;;;;;17.28;74.65;94399.25;5072189;28;20482;-71
2022/06/11 07:29:25;;;;;;;4.22;3.00;;;;;;;17.17;75.21;94370.81;5055041;28;20123;-72
2022/06/11 07:31:53;;;;;;;4.00;3.20;;;;;;;17.37;76.28;94400.81;5072561;28;20509;-72
2022/06/11 07:34:19;;;;;;;5.07;3.25;;;;;;;17.46;76.58;94406.78;5071922;28;20086;-71
2022/06/11 07:36:45;;;;;;;4.43;3.92;;;;;;;17.58;77.23;94404.56;5071861;28;20040;-72
2022/06/11 07:39:11;;;;;;;6.03;4.00;;;;;;;17.49;76.83;94405.63;5070695;28;20485;-72
2022/06/11 07:41:36;;;;;;;4.65;4.15;;;;;;;17.65;76.77;94414.16;5054769;28;20107;-72
2022/06/11 07:44:02;;;;;;;4.88;4.00;;;;;;;17.73;76.73;94413.25;5069069;28;20029;-72
2022/06/11 07:46:28;;;;;;;4.38;3.58;;;;;;;17.80;77.10;94419.47;5064661;28;20505;-72
2022/06/11 07:48:53;;;;;;;4.13;3.70;;;;;;;17.86;76.97;94413.47;5052854;28;20032;-72
2022/06/11 07:51:19;;;;;;;4.20;3.80;;;;;;;17.89;75.89;94411.50;5067258;28;20485;-72
2022/06/11 07:53:48;;;;;;;3.97;3.58;;;;;;;17.90;75.10;94407.88;5071595;28;20028;-72
2022/06/11 07:56:13;;;;;;;6.25;4.20;;;;;;;17.96;75.18;94409.75;5054267;28;20425;-71
2022/06/11 07:58:39;;;;;;;5.18;4.45;;;;;;;17.98;75.62;94400.69;5054612;28;20029;-72
2022/06/11 08:01:07;;;;;;;4.63;3.83;;;;;;;18.04;74.94;94404.41;5071257;28;20474;-72
2022/06/11 08:03:33;;;;;;;7.10;3.75;;;;;;;18.06;74.51;94403.22;5068270;28;20051;-72
2022/06/11 08:05:59;;;;;;;4.30;3.60;;;;;;;18.13;74.32;94402.50;5068666;28;20029;-72
2022/06/11 08:08:25;;;;;;;4.82;3.75;;;;;;;18.20;74.51;94398.97;5050184;28;20112;-74
2022/06/11 08:10:50;;;;;;;5.25;3.88;;;;;;;18.28;72.43;94403.31;5036280;28;20028;-72
2022/06/11 08:13:16;;;;;;;5.00;3.97;;;;;;;18.35;73.29;94400.75;5065789;28;20063;-73
2022/06/11 08:15:45;;;;;;;3.97;3.50;;;;;;;18.44;73.86;94399.63;5069362;28;20056;-72
2022/06/11 08:18:10;;;;;;;4.40;4.00;;;;;;;18.54;73.03;94395.69;5044822;28;20032;-72
2022/06/11 08:20:36;;;;;;;4.53;3.92;;;;;;;18.62;72.28;94410.56;5067525;28;20739;-72
2022/06/11 08:23:02;;;;;;;5.38;4.03;;;;;;;18.65;72.53;94397.03;5030730;28;20040;-73
2022/06/11 08:25:27;;;;;;;4.40;4.00;;;;;;;18.75;71.57;94400.22;5065272;28;20048;-72
2022/06/11 08:27:54;;;;;;;4.20;3.70;;;;;;;18.86;72.91;94398.06;5067957;28;20029;-72
2022/06/11 08:30:21;;;;;;;5.07;3.97;;;;;;;18.92;70.47;94397.34;5052294;28;20033;-72
2022/06/11 08:32:46;;;;;;;4.97;4.38;;;;;;;18.96;70.96;94403.84;5053372;28;20028;-72
2022/06/11 08:35:12;;;;;;;5.38;4.07;;;;;;;18.91;69.66;94396.50;5068655;28;20082;-72
2022/06/11 08:37:38;;;;;;;4.90;4.40;;;;;;;18.80;67.85;94396.19;5035286;28;20564;-72
2022/06/11 08:40:10;;;;;;;5.60;4.43;;;;;;;18.72;67.40;94399.72;5051995;28;20033;-72
2022/06/11 08:42:41;;;;;;;6.32;4.82;;;;;;;18.76;68.15;94387.88;5052408;28;20086;-72
2022/06/11 08:45:13;;;;;;;;;;;;;;;18.95;71.26;94391.69;5052886;28;20029;-72
2022/06/11 08:47:48;;;;;;;6.70;4.75;;;;;;;19.04;69.44;94390.56;5067753;28;20235;-72
2022/06/11 08:50:17;;;;;;;5.78;5.18;;;;;;;19.17;70.93;94385.41;5068158;28;20028;-72
2022/06/11 08:52:42;;;;;;;5.38;4.88;;;;;;;19.34;70.24;94385.13;5052012;28;20395;-72
2022/06/11 08:55:08;;;;;;;6.90;5.00;;;;;;;19.51;69.61;94383.03;5051649;28;20056;-72
2022/06/11 08:58:05;;;;;;;6.25;5.50;;;;;;;19.59;67.67;94388.97;5051993;28;20048;-73
2022/06/11 09:01:06;;;;;;;5.35;4.85;;;;;;;19.70;71.59;94387.63;5068658;28;20126;-72
2022/06/11 09:03:34;;;;;;;5.28;4.78;;;;;;;19.81;68.74;94388.94;5053768;28;20154;-72
2022/06/11 09:06:08;;;;;;;6.22;4.55;;;;;;;19.82;68.02;94393.19;5070225;28;20033;-72
2022/06/11 09:08:47;;;;;;;5.88;4.80;;;;;;;19.84;69.48;94388.53;5070505;28;20127;-73
2022/06/11 09:11:35;;;;;;;5.30;4.80;;;;;;;19.86;66.98;94387.34;5070034;28;20429;-72
2022/06/11 09:14:18;;;;;;;6.22;4.72;;;;;;;19.89;67.76;94391.38;5070361;28;20615;-72
2022/06/11 09:17:21;;;;;;;5.07;4.57;;;;;;;19.92;67.20;94387.53;5071577;28;20033;-72
2022/06/11 09:19:52;;;;;;;5.30;4.35;;;;;;;19.89;66.29;94380.03;5071615;28;20453;-73
2022/06/11 09:22:41;;;;;;;5.25;4.75;;;;;;;19.89;69.30;94387.94;5071577;28;20089;-72
2022/06/11 09:25:31;;;;;;;4.88;4.35;;;;;;;19.88;68.67;94397.66;5070136;28;20059;-73
2022/06/11 09:28:18;;;;;;;6.03;5.43;;;;;;;19.86;69.35;94389.13;5071049;28;20106;-72
2022/06/11 09:30:47;;;;;;;7.82;5.55;;;;;;;19.82;70.66;94393.19;5071131;28;20561;-72
2022/06/11 09:33:51;;;;;;;8.77;6.13;;;;;;;19.80;72.25;94389.91;5053185;28;20029;-72
2022/06/11 09:36:42;;;;;;;8.27;5.53;;;;;;;19.76;69.97;94392.13;5070826;28;20045;-72
2022/06/11 09:39:19;;;;;;;7.13;5.25;;;;;;;19.63;71.10;94390.19;5065273;28;20457;-73
2022/06/11 09:41:50;;;;;;;6.80;5.75;;;;;;;19.63;72.24;94389.38;5069739;28;20060;-72
2022/06/11 09:44:36;;;;;;;6.10;5.10;;;;;;;19.52;68.43;94396.00;5053481;28;20112;-73
2022/06/11 09:47:21;;;;;;;8.77;5.18;;;;;;;19.42;66.96;94388.44;5052726;28;20636;-72
2022/06/11 09:49:59;;;;;;;6.45;5.32;;;;;;;19.38;66.18;94394.25;5069832;28;20029;-72
2022/06/11 09:52:33;;;;;;;6.25;5.65;;;;;;;19.42;67.74;94391.06;5071272;28;20025;-72
2022/06/11 09:55:07;;;;;;;6.35;5.75;;;;;;;19.50;70.88;94392.75;5069732;28;20123;-72
2022/06/11 09:57:36;;;;;;;6.25;5.47;;;;;;;19.59;68.38;94402.13;5069467;28;20056;-73
2022/06/11 10:00:08;;;;;;;5.78;5.15;;;;;;;19.65;68.09;94403.19;5069564;28;20051;-73
2022/06/11 10:03:51;;;;;;;9.63;5.40;;;;;;;19.68;69.03;94404.66;5069505;28;20036;-72
2022/06/11 10:06:23;;;;;;;6.72;5.70;;;;;;;19.69;67.64;94401.00;5062607;28;20070;-73
2022/06/11 10:08:57;;;;;;;6.00;4.93;;;;;;;19.72;67.76;94411.16;5044643;28;20123;-73
2022/06/11 10:11:33;;;;;;;5.38;4.53;;;;;;;19.71;67.94;94404.25;5069406;28;20402;-72
2022/06/11 10:17:07;;;;;;;6.55;4.97;;;;;;;19.62;67.37;94406.19;5055864;28;20090;-72
2022/06/11 10:19:43;;;;;;;4.82;4.32;;;;;;;19.56;67.54;94418.31;5054526;28;20531;-72
2022/06/11 10:22:28;;;;;;;7.70;5.20;;;;;;;19.44;67.00;94396.13;5054034;28;20173;-72
2022/06/11 10:25:13;;;;;;;6.18;4.93;;;;;;;19.51;67.80;94410.19;5069444;28;20505;-73
2022/06/11 10:27:48;;;;;;;4.95;4.45;;;;;;;19.46;67.90;94417.84;5052405;28;20048;-72
2022/06/11 10:30:41;;;;;;;4.75;4.25;;;;;;;19.40;68.17;94410.69;5037160;28;20402;-72
2022/06/11 10:33:35;;;;;;;5.10;4.60;;;;;;;19.39;69.13;94423.06;5055245;28;20115;-72
2022/06/11 10:36:08;;;;;;;5.35;4.20;;;;;;;19.35;68.02;94423.63;5070495;28;20029;-72
2022/06/11 10:38:47;;;;;;;4.28;3.88;;;;;;;19.31;66.49;94430.28;5036187;28;20033;-73
2022/06/11 10:41:35;;;;;;;6.22;3.60;;;;;;;19.12;66.11;94427.28;5053859;28;20632;-72
2022/06/11 10:44:05;;;;;;;4.15;3.58;;;;;;;19.08;66.48;94433.91;5070322;28;20112;-73
2022/06/11 10:46:32;;;;;;;5.97;5.00;;;;;;;19.06;69.66;94432.50;5038478;28;20029;-72
2022/06/11 10:48:59;;;;;;;6.32;5.60;;;;;;;19.05;68.40;94439.56;5039646;28;20063;-73
2022/06/11 10:51:27;;;;;;;7.28;3.92;;;;;;;19.05;67.00;94444.81;5056522;28;20035;-72
2022/06/11 10:53:52;;;;;;;4.13;3.60;;;;;;;19.01;67.69;94446.22;5072741;28;20062;-73
2022/06/11 10:56:20;;;;;;;4.30;3.28;;;;;;;18.97;67.63;94451.03;5073829;28;20020;-72
2022/06/11 10:58:54;;;;;;;4.68;3.92;;;;;;;18.83;68.65;94443.19;5073895;28;20482;-73
2022/06/11 11:01:28;;;;;;;4.28;3.75;;;;;;;18.77;68.20;94452.63;5072585;28;20031;-72
2022/06/11 11:03:58;;;;;;;4.30;3.70;;;;;;;18.71;69.43;94451.53;5039923;28;20031;-72
2022/06/11 11:06:28;;;;;;;5.57;4.40;;;;;;;18.68;70.55;94451.09;5056063;28;20178;-72
2022/06/11 11:08:58;;;;;;;5.75;3.70;;;;;;;18.62;70.25;94449.19;5072449;28;20037;-72
2022/06/11 11:11:25;;;;;;;3.90;2.95;;;;;;;18.60;71.35;94445.94;5055792;28;20097;-72
2022/06/11 11:13:50;;;;;;;4.43;3.00;;;;;;;18.60;71.30;94452.00;5055900;28;20161;-72
2022/06/11 11:16:22;;;;;;;3.60;2.72;;;;;;;18.53;71.03;94456.38;5072415;28;20516;-73
2022/06/11 11:18:53;;;;;;;3.13;2.80;;;;;;;18.55;71.86;94451.75;5072391;28;20028;-72
2022/06/11 11:21:48;;;;;;;3.95;2.78;;;;;;;18.60;71.61;94454.63;5073618;28;20039;-73
2022/06/11 11:24:16;;;;;;;3.28;2.40;;;;;;;18.66;73.39;94453.88;5057468;28;20036;-72
2022/06/11 11:27:13;;;;;;;3.17;2.53;;;;;;;18.67;72.72;94447.66;5055720;28;20036;-72
2022/06/11 11:29:40;;;;;;;3.28;2.30;;;;;;;18.66;72.68;94443.38;5072077;28;20036;-72
2022/06/11 11:32:29;;;;;;;3.67;2.47;;;;;;;18.72;72.90;94447.91;5055691;28;20035;-73
2022/06/11 11:34:54;;;;;;;3.90;2.60;;;;;;;18.81;74.38;94448.63;5073308;28;20044;-73
2022/06/11 11:37:21;;;;;;;4.70;2.90;;;;;;;18.83;73.42;94446.63;5055448;28;20410;-72
2022/06/11 11:39:57;;;;;;;3.10;2.50;;;;;;;18.93;72.00;94456.84;5071995;28;20036;-72
2022/06/11 11:42:34;;;;;;;3.22;2.53;;;;;;;18.92;71.07;94440.25;5055409;28;20021;-72
2022/06/11 11:45:00;;;;;;;3.42;3.10;;;;;;;18.85;71.48;94451.69;5071872;28;20024;-73
2022/06/11 11:47:36;;;;;;;3.70;2.75;;;;;;;18.83;71.54;94437.91;5054705;28;20062;-73
2022/06/11 11:50:24;;;;;;;3.30;2.95;;;;;;;18.94;72.02;94437.41;5038550;28;20090;-73
2022/06/11 11:52:52;;;;;;;3.88;2.63;;;;;;;18.98;71.76;94436.06;5054987;28;20426;-72
2022/06/11 11:55:29;;;;;;;3.45;2.80;;;;;;;19.06;72.25;94429.84;5071680;28;20129;-72